Time;durP1;ratioP1;P1;durP2;ratioP2;P2;SDS_P1;SDS_P2;PMS_P1;PMS_P2;Temp;Humidity;BMP_temperature;BMP_pressure;BME280_temperature;BME280_humidity;BME280_pressure;Samples;Min_cycle;Max_cycle;Signal;HPM_P1;HPM_P2
2021/05/04 00:00:48;;;;;;;1.83;1.33;;;12.90;55.10;;;;;;5018110;28;20041;-70
2021/05/04 00:03:13;;;;;;;1.15;1.10;;;12.90;55.10;;;;;;5035286;28;20477;-70
2021/05/04 00:05:40;;;;;;;1.38;1.27;;;12.90;55.10;;;;;;5035808;28;20450;-70
2021/05/04 00:08:06;;;;;;;1.65;1.55;;;12.90;55.10;;;;;;5017829;28;20024;-70
2021/05/04 00:10:31;;;;;;;2.33;1.02;;;12.90;55.30;;;;;;5035685;28;20104;-69
2021/05/04 00:12:57;;;;;;;3.53;1.60;;;12.90;54.90;;;;;;5035580;28;20029;-69
2021/05/04 00:15:23;;;;;;;1.27;1.10;;;13.00;54.70;;;;;;5017772;28;20031;-69
2021/05/04 00:17:48;;;;;;;1.33;1.23;;;13.00;54.60;;;;;;5034947;28;20064;-70
2021/05/04 00:20:14;;;;;;;2.35;1.33;;;13.10;54.40;;;;;;5017669;28;20030;-70
2021/05/04 00:22:39;;;;;;;1.20;1.10;;;13.10;54.40;;;;;;5035442;28;20474;-69
2021/05/04 00:25:05;;;;;;;1.98;1.60;;;13.10;55.10;;;;;;5035460;28;20527;-69
2021/05/04 00:27:31;;;;;;;2.92;2.05;;;13.10;54.50;;;;;;5035231;28;20028;-69
2021/05/04 00:29:56;;;;;;;3.00;1.83;;;13.10;54.40;;;;;;5035294;28;20029;-69
2021/05/04 00:32:22;;;;;;;2.05;1.85;;;13.00;54.30;;;;;;5035030;28;20020;-70
2021/05/04 00:34:48;;;;;;;1.40;1.30;;;13.00;54.40;;;;;;5035301;28;20021;-70
2021/05/04 00:37:13;;;;;;;1.75;1.50;;;12.90;54.80;;;;;;5035803;28;20355;-69
2021/05/04 00:39:39;;;;;;;2.53;1.90;;;12.70;55.10;;;;;;5034869;28;20037;-69
2021/05/04 00:42:05;;;;;;;1.80;1.48;;;12.60;55.60;;;;;;5034810;28;20048;-69
2021/05/04 00:44:31;;;;;;;1.77;1.42;;;12.40;56.00;;;;;;5034982;28;20017;-69
2021/05/04 00:46:58;;;;;;;2.10;1.60;;;12.10;56.50;;;;;;5033966;28;20075;-70
2021/05/04 00:49:23;;;;;;;1.88;1.33;;;11.90;57.30;;;;;;5034841;28;20017;-70
2021/05/04 00:51:52;;;;;;;2.65;1.75;;;11.60;58.10;;;;;;5034716;28;20105;-70
2021/05/04 00:54:18;;;;;;;2.72;1.98;;;11.30;58.80;;;;;;5034877;28;20029;-71
2021/05/04 00:56:44;;;;;;;1.75;1.50;;;11.10;59.40;;;;;;5034772;28;20087;-70
2021/05/04 00:59:10;;;;;;;2.17;1.63;;;10.90;59.90;;;;;;5034582;28;20029;-70
2021/05/04 01:01:36;;;;;;;1.92;1.70;;;10.80;60.30;;;;;;5034373;28;20022;-70
2021/05/04 01:04:02;;;;;;;2.67;1.70;;;10.60;60.60;;;;;;5034714;28;20083;-70
2021/05/04 01:06:28;;;;;;;2.03;1.63;;;10.50;61.40;;;;;;5034469;28;20060;-70
2021/05/04 01:08:53;;;;;;;2.17;1.55;;;10.40;62.00;;;;;;5034606;28;20061;-70
2021/05/04 01:11:19;;;;;;;2.97;1.98;;;10.30;62.20;;;;;;5034576;28;20524;-70
2021/05/04 01:13:52;;;;;;;2.70;1.88;;;10.20;62.70;;;;;;5034434;28;20068;-70
2021/05/04 01:16:18;;;;;;;2.25;1.60;;;10.10;63.60;;;;;;5033949;28;20025;-70
2021/05/04 01:18:44;;;;;;;4.10;1.80;;;9.90;64.40;;;;;;5034326;28;20037;-70
2021/05/04 01:21:09;;;;;;;2.47;1.85;;;9.80;64.90;;;;;;5034311;28;20029;-70
2021/05/04 01:23:35;;;;;;;1.55;1.45;;;9.70;65.30;;;;;;5034329;28;20048;-70
2021/05/04 01:26:02;;;;;;;1.90;1.73;;;9.60;65.60;;;;;;5034181;28;20369;-70
2021/05/04 01:28:27;;;;;;;2.85;1.90;;;9.50;66.20;;;;;;5034065;28;20025;-70
2021/05/04 01:30:53;;;;;;;3.22;1.70;;;9.40;66.40;;;;;;5033724;28;20022;-70
2021/05/04 01:33:19;;;;;;;1.83;1.40;;;9.40;66.70;;;;;;5034117;28;20067;-70
2021/05/04 01:35:44;;;;;;;4.25;1.73;;;9.30;67.10;;;;;;5034126;28;20378;-70
2021/05/04 01:38:10;;;;;;;3.20;1.77;;;9.30;67.20;;;;;;5033843;28;20477;-70
2021/05/04 01:40:35;;;;;;;1.80;1.60;;;9.30;67.60;;;;;;5033704;28;20075;-70
2021/05/04 01:43:01;;;;;;;1.85;1.25;;;9.30;67.60;;;;;;5033988;28;20088;-70
2021/05/04 01:45:26;;;;;;;2.88;1.90;;;9.30;67.60;;;;;;5033417;28;20039;-71
2021/05/04 01:47:52;;;;;;;2.35;1.60;;;9.30;68.00;;;;;;5033995;28;20022;-70
2021/05/04 01:50:18;;;;;;;2.53;1.77;;;9.30;68.40;;;;;;5016020;28;20128;-70
2021/05/04 01:52:43;;;;;;;2.03;1.80;;;9.30;68.30;;;;;;5033724;28;20028;-70
2021/05/04 01:55:10;;;;;;;3.83;2.00;;;9.30;68.50;;;;;;5033745;28;20540;-68
2021/05/04 01:57:36;;;;;;;1.80;1.60;;;9.30;68.50;;;;;;5033718;28;20087;-70
2021/05/04 02:00:04;;;;;;;3.92;1.60;;;9.30;68.70;;;;;;5032268;28;20029;-71
2021/05/04 02:02:29;;;;;;;5.88;2.10;;;9.30;69.00;;;;;;5033643;28;20021;-69
2021/05/04 02:04:55;;;;;;;2.25;1.92;;;9.20;69.30;;;;;;5033717;28;20100;-70
2021/05/04 02:07:20;;;;;;;1.95;1.73;;;9.20;69.50;;;;;;5033366;28;20018;-69
2021/05/04 02:09:46;;;;;;;1.65;1.55;;;9.20;69.50;;;;;;5033457;28;20398;-70
2021/05/04 02:12:11;;;;;;;1.38;1.30;;;9.20;69.90;;;;;;5015682;28;20100;-70
2021/05/04 02:14:37;;;;;;;2.50;1.63;;;9.10;69.90;;;;;;5032988;28;20026;-70
2021/05/04 02:17:02;;;;;;;2.67;1.77;;;9.10;70.10;;;;;;5033433;28;20160;-70
2021/05/04 02:19:28;;;;;;;5.60;2.00;;;9.10;70.60;;;;;;5033040;28;20041;-70
2021/05/04 02:21:53;;;;;;;1.60;1.30;;;9.00;70.90;;;;;;5033419;28;20093;-70
2021/05/04 02:24:19;;;;;;;1.45;1.35;;;9.00;70.90;;;;;;5033219;28;20108;-69
2021/05/04 02:26:44;;;;;;;1.80;1.70;;;9.00;71.00;;;;;;5033145;28;20033;-70
2021/05/04 02:29:10;;;;;;;1.95;1.75;;;9.00;71.20;;;;;;5032890;28;20029;-69
2021/05/04 02:31:35;;;;;;;1.30;1.20;;;9.00;71.30;;;;;;5033005;28;20071;-69
2021/05/04 02:34:01;;;;;;;1.98;1.77;;;9.10;71.30;;;;;;5033329;28;20052;-70
2021/05/04 02:36:26;;;;;;;1.95;1.50;;;9.10;71.30;;;;;;5015469;28;20076;-70
2021/05/04 02:38:52;;;;;;;1.95;1.50;;;9.10;71.40;;;;;;5033147;28;20037;-70
2021/05/04 02:41:18;;;;;;;2.40;1.80;;;9.10;71.40;;;;;;5032758;28;20041;-70
2021/05/04 02:43:43;;;;;;;2.65;1.83;;;9.20;71.60;;;;;;5033093;28;20032;-70
2021/05/04 02:46:09;;;;;;;2.03;1.35;;;9.20;71.90;;;;;;5033000;28;20026;-70
2021/05/04 02:48:39;;;;;;;2.08;1.45;;;9.20;71.90;;;;;;5032915;28;20032;-70
2021/05/04 02:51:06;;;;;;;1.77;1.45;;;9.20;71.90;;;;;;5032965;28;20124;-70
2021/05/04 02:53:31;;;;;;;3.30;1.90;;;9.20;72.00;;;;;;5032845;28;20026;-70
2021/05/04 02:55:57;;;;;;;1.80;1.40;;;9.20;72.10;;;;;;5032670;28;20386;-70
2021/05/04 02:58:23;;;;;;;2.28;1.77;;;9.20;72.20;;;;;;5032987;28;20470;-70
2021/05/04 03:00:48;;;;;;;1.60;1.50;;;9.20;72.40;;;;;;5032755;28;20029;-70
2021/05/04 03:03:13;;;;;;;1.95;1.73;;;9.10;72.70;;;;;;5032746;28;20425;-69
2021/05/04 03:05:39;;;;;;;2.13;1.70;;;9.10;72.80;;;;;;5032830;28;20029;-69
2021/05/04 03:08:05;;;;;;;3.25;1.95;;;9.10;73.30;;;;;;5032820;28;20021;-70
2021/05/04 03:10:30;;;;;;;1.95;1.73;;;9.00;73.70;;;;;;5034250;28;20018;-70
2021/05/04 03:12:55;;;;;;;1.73;1.60;;;9.00;73.80;;;;;;5036759;28;20411;-69
2021/05/04 03:15:21;;;;;;;1.50;1.40;;;9.00;73.90;;;;;;5036793;28;20022;-69
2021/05/04 03:17:47;;;;;;;2.05;1.60;;;9.00;73.90;;;;;;5036651;28;20045;-70
2021/05/04 03:20:13;;;;;;;1.83;1.48;;;9.00;74.20;;;;;;5036590;28;20095;-69
2021/05/04 03:22:38;;;;;;;2.75;1.98;;;9.00;74.40;;;;;;5036470;28;20393;-69
2021/05/04 03:25:05;;;;;;;1.67;1.42;;;9.00;74.60;;;;;;5036185;28;20025;-69
2021/05/04 03:27:31;;;;;;;2.72;2.20;;;9.00;74.60;;;;;;5018792;28;20124;-70
2021/05/04 03:29:56;;;;;;;2.40;1.88;;;9.00;74.80;;;;;;5036366;28;20521;-69
2021/05/04 03:32:22;;;;;;;1.80;1.52;;;9.00;74.70;;;;;;5036398;28;20078;-69
2021/05/04 03:34:47;;;;;;;1.42;1.30;;;9.10;74.70;;;;;;5018678;28;20075;-69
2021/05/04 03:37:13;;;;;;;2.03;1.38;;;9.10;74.70;;;;;;5036375;28;20092;-70
2021/05/04 03:39:38;;;;;;;2.42;1.40;;;9.20;74.60;;;;;;5035715;28;20033;-70
2021/05/04 03:42:04;;;;;;;2.40;1.50;;;9.20;74.60;;;;;;5035975;28;20045;-69
2021/05/04 03:44:29;;;;;;;1.83;1.52;;;9.30;74.50;;;;;;5036333;28;20018;-69
2021/05/04 03:46:55;;;;;;;3.10;2.28;;;9.30;74.50;;;;;;5036096;28;20410;-69
2021/05/04 03:49:20;;;;;;;2.45;2.25;;;9.40;74.70;;;;;;5036209;28;20385;-69
2021/05/04 03:51:46;;;;;;;2.10;1.50;;;9.30;74.80;;;;;;5035956;28;20040;-69
2021/05/04 03:54:12;;;;;;;2.60;1.90;;;9.30;75.10;;;;;;5017836;28;20033;-70
2021/05/04 03:56:37;;;;;;;2.70;1.70;;;9.20;75.60;;;;;;5035839;28;20018;-70
2021/05/04 03:59:03;;;;;;;2.72;1.50;;;9.10;75.60;;;;;;5034620;28;20461;-69
2021/05/04 04:01:30;;;;;;;2.28;1.75;;;9.10;75.70;;;;;;5018072;28;20118;-69
2021/05/04 04:03:55;;;;;;;2.22;1.50;;;9.10;76.00;;;;;;5035740;28;20053;-69
2021/05/04 04:06:21;;;;;;;1.77;1.52;;;9.00;76.00;;;;;;5035699;28;20060;-69
2021/05/04 04:08:48;;;;;;;2.42;1.75;;;9.00;76.30;;;;;;5035255;28;20017;-69
2021/05/04 04:11:13;;;;;;;2.28;1.90;;;9.00;76.30;;;;;;5035759;28;20045;-70
2021/05/04 04:13:39;;;;;;;2.35;1.73;;;8.90;76.60;;;;;;5035720;28;20036;-69
2021/05/04 04:16:05;;;;;;;2.10;1.90;;;8.90;76.80;;;;;;5035512;28;20060;-69
2021/05/04 04:18:31;;;;;;;1.70;1.60;;;8.90;77.00;;;;;;5035498;28;20045;-69
2021/05/04 04:20:56;;;;;;;1.58;1.27;;;8.90;76.90;;;;;;5035282;28;20069;-69
2021/05/04 04:23:23;;;;;;;2.40;1.92;;;8.90;76.80;;;;;;5034398;28;20113;-69
2021/05/04 04:25:50;;;;;;;2.15;1.63;;;9.00;76.90;;;;;;5035463;28;20025;-69
2021/05/04 04:28:15;;;;;;;1.88;1.70;;;9.00;76.80;;;;;;5035292;28;20025;-69
2021/05/04 04:30:41;;;;;;;2.28;2.03;;;9.10;76.90;;;;;;5035220;28;20021;-71
2021/05/04 04:33:06;;;;;;;1.40;1.30;;;9.00;76.90;;;;;;5035301;28;20104;-69
2021/05/04 04:35:32;;;;;;;3.33;1.50;;;9.00;76.90;;;;;;5035331;28;20052;-69
2021/05/04 04:37:57;;;;;;;2.45;1.73;;;9.00;77.00;;;;;;5034857;28;20035;-69
2021/05/04 04:40:23;;;;;;;1.45;1.25;;;9.00;77.20;;;;;;5034868;28;20038;-69
2021/05/04 04:42:49;;;;;;;3.30;1.70;;;8.90;77.40;;;;;;5035043;28;20060;-69
2021/05/04 04:45:14;;;;;;;1.30;1.20;;;8.80;77.60;;;;;;5035122;28;20096;-70
2021/05/04 04:47:40;;;;;;;1.25;1.15;;;8.80;77.60;;;;;;5017312;28;20027;-70
2021/05/04 04:50:07;;;;;;;1.92;1.63;;;8.80;77.90;;;;;;5034812;28;20474;-69
2021/05/04 04:52:32;;;;;;;2.00;1.65;;;8.80;78.30;;;;;;5034498;28;20024;-70
2021/05/04 04:54:58;;;;;;;1.40;1.30;;;8.80;78.40;;;;;;5034898;28;20025;-70
2021/05/04 04:57:23;;;;;;;1.17;1.17;;;8.70;78.30;;;;;;5034931;28;20079;-69
2021/05/04 04:59:49;;;;;;;2.95;1.73;;;8.80;78.40;;;;;;5034578;28;20029;-69
2021/05/04 05:02:16;;;;;;;1.30;1.20;;;8.80;78.60;;;;;;5034649;28;20047;-69
2021/05/04 05:04:43;;;;;;;1.30;1.20;;;8.80;78.40;;;;;;5034720;28;20458;-69
2021/05/04 05:07:09;;;;;;;1.85;1.50;;;8.80;78.40;;;;;;5034043;28;20029;-69
2021/05/04 05:09:35;;;;;;;1.90;1.50;;;8.80;78.40;;;;;;5034602;28;20539;-69
2021/05/04 05:12:04;;;;;;;2.65;1.60;;;8.90;78.50;;;;;;5016760;28;20018;-69
2021/05/04 05:14:30;;;;;;;1.30;1.20;;;8.90;78.50;;;;;;5034536;28;20021;-69
2021/05/04 05:16:56;;;;;;;2.10;1.67;;;8.90;78.60;;;;;;5034562;28;20021;-69
2021/05/04 05:19:21;;;;;;;1.40;1.30;;;8.90;78.60;;;;;;5034205;28;20037;-69
2021/05/04 05:21:47;;;;;;;1.58;1.48;;;8.90;78.60;;;;;;5033932;28;20378;-69
2021/05/04 05:24:12;;;;;;;1.70;1.20;;;8.90;78.60;;;;;;5034588;28;20041;-69
2021/05/04 05:26:38;;;;;;;1.40;1.30;;;8.90;78.70;;;;;;5034354;28;20021;-69
2021/05/04 05:29:03;;;;;;;2.55;1.67;;;8.90;78.80;;;;;;5034589;28;20013;-70
2021/05/04 05:31:32;;;;;;;1.80;1.42;;;9.00;79.80;;;;;;5034213;28;20057;-69
2021/05/04 05:33:58;;;;;;;1.80;1.70;;;9.00;79.10;;;;;;5016166;28;20458;-70
2021/05/04 05:36:23;;;;;;;2.60;1.77;;;9.10;79.40;;;;;;5033682;28;20030;-69
2021/05/04 05:38:49;;;;;;;2.50;1.80;;;9.10;79.20;;;;;;5033848;28;20022;-69
2021/05/04 05:41:14;;;;;;;1.90;1.70;;;9.20;79.20;;;;;;5033671;28;20053;-69
2021/05/04 05:43:40;;;;;;;1.77;1.67;;;9.30;79.20;;;;;;5033840;28;20025;-70
2021/05/04 05:46:05;;;;;;;1.40;1.23;;;9.30;79.10;;;;;;5033884;28;20021;-70
2021/05/04 05:48:31;;;;;;;3.05;1.73;;;9.40;79.00;;;;;;5033770;28;20104;-70
2021/05/04 05:50:56;;;;;;;1.42;1.33;;;9.50;79.00;;;;;;5033269;28;20026;-70
2021/05/04 05:53:22;;;;;;;1.95;1.40;;;9.50;79.00;;;;;;5033858;28;20091;-70
2021/05/04 05:55:48;;;;;;;1.85;1.50;;;9.60;79.10;;;;;;5033808;28;20097;-69
2021/05/04 05:58:14;;;;;;;1.50;1.40;;;9.60;79.00;;;;;;5033699;28;20025;-69
2021/05/04 06:00:40;;;;;;;2.85;1.80;;;9.70;79.00;;;;;;5033705;28;20376;-70
2021/05/04 06:03:05;;;;;;;1.80;1.50;;;9.70;79.00;;;;;;5033397;28;20055;-70
2021/05/04 06:05:32;;;;;;;2.05;1.60;;;9.80;79.00;;;;;;5033076;28;20109;-69
2021/05/04 06:07:58;;;;;;;2.10;1.20;;;9.80;78.90;;;;;;5033498;28;20159;-68
2021/05/04 06:10:24;;;;;;;2.17;1.58;;;9.90;78.90;;;;;;5033341;28;20056;-71
2021/05/04 06:13:10;;;;;;;2.42;1.77;;;10.00;78.80;;;;;;5033413;28;20058;-72
2021/05/04 06:15:39;;;;;;;2.65;1.58;;;10.10;78.60;;;;;;5032930;28;20038;-73
2021/05/04 06:18:05;;;;;;;3.72;1.73;;;10.10;78.60;;;;;;5015621;28;20467;-72
2021/05/04 06:20:30;;;;;;;1.50;1.40;;;10.10;78.60;;;;;;5032685;28;20040;-74
2021/05/04 06:22:56;;;;;;;1.40;1.13;;;10.20;78.60;;;;;;5033341;28;20018;-71
2021/05/04 06:25:22;;;;;;;1.63;1.45;;;10.20;78.50;;;;;;5033198;28;20057;-72
2021/05/04 06:27:47;;;;;;;3.15;1.73;;;10.30;78.50;;;;;;5033263;28;20091;-74
2021/05/04 06:30:14;;;;;;;3.15;2.00;;;10.30;78.50;;;;;;5033318;28;20497;-72
2021/05/04 06:32:41;;;;;;;1.17;1.17;;;10.30;78.60;;;;;;5015400;28;20018;-71
2021/05/04 06:35:07;;;;;;;1.90;0.98;;;10.20;78.70;;;;;;5032655;28;20272;-73
2021/05/04 06:37:34;;;;;;;1.60;1.25;;;10.10;78.90;;;;;;5033042;28;20470;-71
2021/05/04 06:39:59;;;;;;;1.30;1.17;;;10.00;79.10;;;;;;5015273;28;20385;-73
2021/05/04 06:42:25;;;;;;;1.45;1.35;;;9.90;79.50;;;;;;5032789;28;20120;-70
2021/05/04 06:44:50;;;;;;;1.80;1.40;;;9.80;79.70;;;;;;5032477;28;20049;-72
2021/05/04 06:47:16;;;;;;;1.55;1.30;;;9.70;80.20;;;;;;5033234;28;20363;-72
2021/05/04 06:49:44;;;;;;;1.08;1.08;;;9.60;80.10;;;;;;5032473;28;20482;-72
2021/05/04 06:52:10;;;;;;;1.35;1.27;;;9.60;80.30;;;;;;5032966;28;20014;-71
2021/05/04 06:54:35;;;;;;;1.45;0.82;;;9.70;80.40;;;;;;5033086;28;20032;-71
2021/05/04 06:57:01;;;;;;;1.92;1.20;;;9.80;80.10;;;;;;5032966;28;20424;-72
2021/05/04 06:59:26;;;;;;;1.77;1.48;;;9.80;80.00;;;;;;5032864;28;20397;-71
2021/05/04 07:01:52;;;;;;;2.63;2.15;;;10.00;80.50;;;;;;5032857;28;20028;-71
2021/05/04 07:04:17;;;;;;;2.78;1.55;;;10.00;79.80;;;;;;5032433;28;20021;-70
2021/05/04 07:06:43;;;;;;;1.77;1.20;;;10.10;79.70;;;;;;5032664;28;20044;-72
2021/05/04 07:09:10;;;;;;;2.50;1.48;;;10.20;79.60;;;;;;5032783;28;20104;-72
2021/05/04 07:11:35;;;;;;;1.40;1.30;;;10.30;79.50;;;;;;5015106;28;20099;-71
2021/05/04 07:14:02;;;;;;;1.27;1.23;;;10.40;79.30;;;;;;5032730;28;20541;-71
2021/05/04 07:16:28;;;;;;;2.08;1.70;;;10.40;79.20;;;;;;5032678;28;20022;-71
2021/05/04 07:18:54;;;;;;;1.55;1.40;;;10.40;79.10;;;;;;5032187;28;20040;-71
2021/05/04 07:21:19;;;;;;;3.75;1.83;;;10.50;79.10;;;;;;5032566;28;20025;-71
2021/05/04 07:23:45;;;;;;;5.97;2.38;;;10.50;79.10;;;;;;5032577;28;20430;-71
2021/05/04 07:26:13;;;;;;;2.83;1.70;;;10.50;79.10;;;;;;5032736;28;20021;-72
2021/05/04 07:28:38;;;;;;;3.67;1.30;;;10.50;79.20;;;;;;5032641;28;20025;-72
2021/05/04 07:31:04;;;;;;;1.45;1.35;;;10.50;79.20;;;;;;5032640;28;20014;-73
2021/05/04 07:33:30;;;;;;;3.70;1.35;;;10.50;79.20;;;;;;5031953;28;20026;-70
2021/05/04 07:35:55;;;;;;;1.75;1.50;;;10.40;79.30;;;;;;5032536;28;20022;-72
2021/05/04 07:38:21;;;;;;;1.77;1.45;;;10.40;79.40;;;;;;5032634;28;20033;-74
2021/05/04 07:40:47;;;;;;;1.95;1.63;;;10.40;79.50;;;;;;5032415;28;20091;-72
2021/05/04 07:43:12;;;;;;;1.60;1.35;;;10.40;79.60;;;;;;5032220;28;20080;-72
2021/05/04 07:45:38;;;;;;;6.10;2.40;;;10.40;79.60;;;;;;5014824;28;20103;-72
2021/05/04 07:48:05;;;;;;;1.60;1.50;;;10.50;79.60;;;;;;5032098;28;20458;-71
2021/05/04 07:50:33;;;;;;;3.58;1.70;;;10.50;79.40;;;;;;5065964;23;20135;-70
2021/05/04 07:52:58;;;;;;;2.85;1.80;;;10.60;79.20;;;;;;5072425;28;20077;-70
2021/05/04 07:55:25;;;;;;;1.60;1.50;;;10.70;79.10;;;;;;5072530;28;20096;-70
2021/05/04 07:57:50;;;;;;;2.65;1.63;;;10.60;79.10;;;;;;5074516;28;20035;-70
2021/05/04 08:00:16;;;;;;;1.92;1.52;;;10.60;79.20;;;;;;5075918;28;20033;-71
2021/05/04 08:02:42;;;;;;;2.90;1.25;;;10.40;79.70;;;;;;5075384;28;20476;-72
2021/05/04 08:05:11;;;;;;;2.85;1.40;;;10.10;80.20;;;;;;5074646;28;20024;-71
2021/05/04 08:07:36;;;;;;;1.92;1.67;;;9.80;80.90;;;;;;5075672;28;20142;-72
2021/05/04 08:10:04;;;;;;;1.98;1.40;;;9.50;81.50;;;;;;5074346;28;20028;-74
2021/05/04 08:12:29;;;;;;;0.95;0.95;;;9.20;82.10;;;;;;5075399;28;20017;-71
2021/05/04 08:14:55;;;;;;;0.90;0.90;;;9.10;82.50;;;;;;5074954;28;20546;-73
2021/05/04 08:17:25;;;;;;;3.67;1.48;;;8.90;82.80;;;;;;5075375;28;20016;-75
2021/05/04 08:19:50;;;;;;;3.58;1.23;;;8.80;83.10;;;;;;5075259;28;20036;-75
2021/05/04 08:22:16;;;;;;;1.00;0.95;;;8.90;83.10;;;;;;5075380;28;20020;-76
2021/05/04 08:24:42;;;;;;;1.05;0.80;;;9.00;82.90;;;;;;5075269;28;20357;-75
2021/05/04 08:27:07;;;;;;;2.10;1.48;;;9.10;82.80;;;;;;5073912;28;20579;-75
2021/05/04 08:29:34;;;;;;;2.28;1.52;;;9.20;82.80;;;;;;5074782;28;20035;-77
2021/05/04 08:32:03;;;;;;;3.13;1.70;;;9.30;82.90;;;;;;5073862;28;20095;-77
2021/05/04 08:34:33;;;;;;;4.22;2.05;;;9.50;83.00;;;;;;5075222;28;20431;-75
2021/05/04 08:37:00;;;;;;;1.80;1.40;;;9.60;82.70;;;;;;5075275;28;20027;-74
2021/05/04 08:39:26;;;;;;;1.95;1.40;;;9.80;82.50;;;;;;5075179;28;20044;-74
2021/05/04 08:41:51;;;;;;;3.03;1.50;;;10.00;82.40;;;;;;5075343;28;20021;-74
2021/05/04 08:44:19;;;;;;;1.55;1.23;;;10.10;82.40;;;;;;5073515;28;20031;-74
2021/05/04 08:46:49;;;;;;;4.35;1.90;;;10.20;82.60;;;;;;5073697;28;20027;-75
2021/05/04 08:49:17;;;;;;;2.38;1.63;;;10.40;82.90;;;;;;5071627;22;20378;-75
2021/05/04 08:51:44;;;;;;;3.38;1.50;;;10.50;83.20;;;;;;5055023;28;20036;-77
2021/05/04 08:54:10;;;;;;;3.13;2.03;;;10.40;83.70;;;;;;5054981;28;20111;-82
2021/05/04 08:56:36;;;;;;;4.38;2.08;;;10.40;84.50;;;;;;5054837;28;20477;-78
2021/05/04 08:59:03;;;;;;;4.20;2.03;;;10.40;85.20;;;;;;5054338;28;20102;-79
2021/05/04 09:01:29;;;;;;;3.15;1.98;;;10.40;85.70;;;;;;5054879;28;20017;-81
2021/05/04 09:04:29;;;;;;;4.32;2.28;;;10.40;86.10;;;;;;5054780;28;20025;-78
2021/05/04 09:06:49;;;;;;;2.65;1.90;;;10.40;86.40;;;;;;5045343;28;20366;-79
2021/05/04 09:09:28;;;;;;;4.50;2.15;;;10.30;87.10;;;;;;5044753;28;20112;-79
2021/05/04 09:12:14;;;;;;;7.13;3.40;;;10.10;87.90;;;;;;5054604;28;20017;-80
2021/05/04 09:14:49;;;;;;;4.50;3.00;;;10.00;88.70;;;;;;5053013;28;20075;-79
2021/05/04 09:17:19;;;;;;;4.30;2.50;;;9.90;89.20;;;;;;5053581;28;20025;-79
2021/05/04 09:22:43;;;;;;;3.88;2.60;;;10.20;89.90;;;;;;5054772;28;20036;-78
2021/05/04 09:25:30;;;;;;;4.75;2.55;;;10.60;89.30;;;;;;5054195;28;20473;-79
2021/05/04 09:28:10;;;;;;;3.13;2.53;;;10.70;89.10;;;;;;5053821;28;20105;-81
2021/05/04 09:30:37;;;;;;;6.82;3.28;;;10.70;89.10;;;;;;5054350;28;20051;-77
2021/05/04 09:33:07;;;;;;;2.67;2.22;;;10.70;89.40;;;;;;5054151;28;20025;-78
2021/05/04 09:35:32;;;;;;;8.23;3.15;;;10.70;89.40;;;;;;5054261;28;20104;-81
2021/05/04 09:38:09;;;;;;;2.95;2.22;;;10.90;89.50;;;;;;5053931;28;20531;-77
2021/05/04 09:40:37;;;;;;;3.80;2.38;;;11.00;89.50;;;;;;5053804;28;20424;-77
2021/05/04 09:43:13;;;;;;;4.03;2.38;;;11.10;89.30;;;;;;5053454;28;20089;-83
2021/05/04 09:45:50;;;;;;;3.45;1.88;;;11.40;89.00;;;;;;5054077;28;20036;-79
2021/05/04 09:48:22;;;;;;;2.65;1.75;;;11.50;88.40;;;;;;5053288;28;20063;-77
2021/05/04 09:51:04;;;;;;;4.47;1.80;;;11.40;88.70;;;;;;5053316;28;20017;-79
2021/05/04 09:53:39;;;;;;;1.95;1.73;;;11.20;88.90;;;;;;5052491;28;20100;-81
2021/05/04 09:56:05;;;;;;;3.88;2.50;;;11.00;89.20;;;;;;5052719;28;20432;-79
2021/05/04 09:58:42;;;;;;;3.53;1.75;;;10.60;89.70;;;;;;5052016;28;20025;-79
2021/05/04 10:01:10;;;;;;;6.13;2.33;;;10.30;90.10;;;;;;5053816;28;20031;-81
2021/05/04 10:03:37;;;;;;;4.47;2.20;;;10.00;90.50;;;;;;5052425;28;20016;-80
2021/05/04 10:06:05;;;;;;;4.80;2.28;;;9.90;90.70;;;;;;5053683;28;20104;-78
2021/05/04 10:08:35;;;;;;;3.53;1.90;;;9.90;90.50;;;;;;5053437;28;20029;-82
2021/05/04 10:11:04;;;;;;;4.82;2.15;;;9.80;90.50;;;;;;5053211;28;20021;-79
2021/05/04 10:13:31;;;;;;;2.65;1.83;;;9.70;90.60;;;;;;5052330;28;20036;-79
2021/05/04 10:15:57;;;;;;;3.10;1.90;;;9.70;90.60;;;;;;5053530;28;20035;-79
2021/05/04 10:18:24;;;;;;;2.63;2.03;;;9.70;90.60;;;;;;5053286;28;20500;-79
2021/05/04 10:20:53;;;;;;;4.78;2.75;;;9.70;90.50;;;;;;5052499;28;20044;-81
2021/05/04 10:23:19;;;;;;;4.13;2.30;;;9.80;90.40;;;;;;5053466;28;20071;-75
2021/05/04 10:25:45;;;;;;;5.80;3.03;;;9.80;90.20;;;;;;5052854;28;20052;-81
2021/05/04 10:28:15;;;;;;;3.45;1.92;;;9.60;90.30;;;;;;5053380;28;20021;-79
2021/05/04 10:30:41;;;;;;;;;;;9.50;90.40;;;;;;5053708;28;20028;-76
2021/05/04 10:33:09;;;;;;;2.13;1.90;;;9.30;90.50;;;;;;5052996;28;19905;-77
2021/05/04 10:35:38;;;;;;;3.75;1.70;;;9.40;90.60;;;;;;5052018;28;20435;-80
2021/05/04 10:38:05;;;;;;;4.25;1.60;;;9.50;90.40;;;;;;5053270;28;20547;-77
2021/05/04 10:40:34;;;;;;;1.85;1.65;;;9.80;90.30;;;;;;5047214;28;20075;-77
2021/05/04 10:43:22;;;;;;;3.60;1.90;;;10.20;90.00;;;;;;5034912;28;20355;-79
2021/05/04 10:45:53;;;;;;;1.65;1.33;;;10.50;88.80;;;;;;5040291;28;20501;-78
2021/05/04 10:48:37;;;;;;;2.72;1.27;;;10.60;88.30;;;;;;5053079;28;20055;-78
2021/05/04 10:51:12;;;;;;;4.32;2.53;;;10.50;88.00;;;;;;5052937;28;20144;-77
2021/05/04 10:54:01;;;;;;;1.40;1.00;;;10.40;88.10;;;;;;5051699;28;20432;-75
2021/05/04 10:56:45;;;;;;;2.65;1.30;;;10.40;88.00;;;;;;5052348;28;20099;-75
2021/05/04 10:59:33;;;;;;;1.05;0.90;;;10.50;87.70;;;;;;5052694;28;20025;-77
2021/05/04 11:02:17;;;;;;;1.85;1.55;;;10.60;87.30;;;;;;5052836;28;20057;-75
2021/05/04 11:04:44;;;;;;;0.80;0.80;;;10.50;87.00;;;;;;5052730;28;20032;-78
2021/05/04 11:07:10;;;;;;;3.45;1.20;;;10.40;86.90;;;;;;5049207;28;20017;-76
2021/05/04 11:09:39;;;;;;;2.15;1.02;;;10.30;87.10;;;;;;5040785;28;20027;-80
2021/05/04 11:12:08;;;;;;;1.25;0.85;;;10.40;87.00;;;;;;5052620;28;20100;-80
2021/05/04 11:14:39;;;;;;;0.77;0.75;;;10.70;86.40;;;;;;5052792;28;20017;-77
2021/05/04 11:17:10;;;;;;;2.92;1.13;;;10.80;85.80;;;;;;5052817;28;20021;-78
2021/05/04 11:19:42;;;;;;;1.63;1.30;;;10.80;85.10;;;;;;5052588;28;20037;-77
2021/05/04 11:22:10;;;;;;;1.50;1.40;;;10.60;84.90;;;;;;5052845;28;20049;-77
2021/05/04 11:24:38;;;;;;;2.35;1.10;;;10.40;85.30;;;;;;5050745;28;20135;-79
2021/05/04 11:27:04;;;;;;;3.78;1.40;;;10.00;85.80;;;;;;5036782;28;20018;-76
2021/05/04 11:29:33;;;;;;;1.85;1.20;;;9.80;86.60;;;;;;5038756;28;20477;-77
2021/05/04 11:32:14;;;;;;;1.50;1.40;;;9.90;86.70;;;;;;5044435;28;20087;-77
2021/05/04 11:34:50;;;;;;;1.55;1.17;;;10.50;86.40;;;;;;5056475;28;20021;-77
2021/05/04 11:37:22;;;;;;;1.20;1.17;;;10.80;85.20;;;;;;5036615;28;20101;-76
2021/05/04 11:39:51;;;;;;;2.55;1.35;;;11.10;84.70;;;;;;5035582;28;20124;-78
2021/05/04 11:42:17;;;;;;;2.72;1.30;;;11.10;84.20;;;;;;5036362;28;20030;-79
2021/05/04 11:44:43;;;;;;;2.85;1.30;;;11.00;84.30;;;;;;5036359;28;20021;-78
2021/05/04 11:47:26;;;;;;;2.30;1.55;;;10.90;84.00;;;;;;5050312;28;20083;-76
2021/05/04 11:50:05;;;;;;;2.67;1.30;;;10.80;84.00;;;;;;5055946;28;20133;-75
2021/05/04 11:52:31;;;;;;;3.25;1.92;;;10.80;84.30;;;;;;5055503;28;20462;-76
2021/05/04 11:55:16;;;;;;;3.20;1.42;;;10.70;83.70;;;;;;5054535;28;20025;-81
2021/05/04 11:57:47;;;;;;;1.55;1.45;;;10.70;82.90;;;;;;5055134;28;20091;-75
2021/05/04 12:00:21;;;;;;;2.85;1.38;;;10.80;83.10;;;;;;5055353;28;20029;-77
2021/05/04 12:02:47;;;;;;;1.60;1.50;;;11.00;82.90;;;;;;5055608;28;20017;-76
2021/05/04 12:05:16;;;;;;;1.40;1.30;;;11.10;82.20;;;;;;5055755;28;20366;-78
2021/05/04 12:07:46;;;;;;;2.63;1.10;;;11.40;82.10;;;;;;5055307;28;20021;-77
2021/05/04 12:10:14;;;;;;;1.65;1.15;;;11.80;81.20;;;;;;5055959;28;20025;-79
2021/05/04 12:12:48;;;;;;;2.50;1.00;;;12.10;80.10;;;;;;5055772;28;20029;-78
2021/05/04 12:15:17;;;;;;;1.25;1.13;;;12.60;79.10;;;;;;5055589;28;20021;-78
2021/05/04 12:17:53;;;;;;;1.73;1.50;;;12.60;78.30;;;;;;5055540;28;20382;-80
2021/05/04 12:20:20;;;;;;;2.10;2.00;;;12.30;78.50;;;;;;5055562;28;20064;-84
2021/05/04 12:22:47;;;;;;;1.77;1.40;;;11.80;79.30;;;;;;5055047;28;20060;-76
2021/05/04 12:25:15;;;;;;;1.55;1.45;;;11.40;80.00;;;;;;5055350;28;20020;-78
2021/05/04 12:27:43;;;;;;;1.30;1.20;;;11.30;80.50;;;;;;5055248;28;20024;-77
2021/05/04 12:30:11;;;;;;;2.03;1.30;;;11.30;80.40;;;;;;5055172;28;20051;-78
2021/05/04 12:32:37;;;;;;;1.80;1.00;;;11.20;80.20;;;;;;5053952;28;20484;-77
2021/05/04 12:35:31;;;;;;;1.88;1.40;;;11.20;80.10;;;;;;5055222;28;20060;-77
2021/05/04 12:38:22;;;;;;;1.42;1.30;;;11.20;79.80;;;;;;5053441;28;20484;-75
2021/05/04 12:41:06;;;;;;;1.50;1.00;;;11.30;79.20;;;;;;5055004;28;20044;-80
2021/05/04 12:43:32;;;;;;;1.40;1.23;;;11.30;79.50;;;;;;5054484;28;20021;-82
2021/05/04 12:45:59;;;;;;;2.45;1.40;;;11.20;79.30;;;;;;5055098;28;20374;-80
2021/05/04 12:48:25;;;;;;;1.40;1.30;;;11.10;79.40;;;;;;5054753;28;20037;-78
2021/05/04 12:51:01;;;;;;;1.20;1.10;;;10.90;79.40;;;;;;5054306;28;20025;-80
2021/05/04 12:53:32;;;;;;;2.40;1.42;;;10.90;79.50;;;;;;5054997;28;20051;-77
2021/05/04 12:56:16;;;;;;;1.65;1.25;;;11.10;79.40;;;;;;5054904;28;20385;-78
2021/05/04 12:59:08;;;;;;;1.05;0.95;;;11.30;78.50;;;;;;5054833;28;20025;-79